sensor_id;sensor_type;location;lat;lon;timestamp;P1;durP1;ratioP1;P2;durP2;ratioP2
14247;SDS011;7208;49.826;6.004;2024-03-22T00:01:50;2.33;;;2.13;;
14247;SDS011;7208;49.826;6.004;2024-03-22T00:04:16;3.43;;;2.53;;
14247;SDS011;7208;49.826;6.004;2024-03-22T00:06:43;2.33;;;2.07;;
14247;SDS011;7208;49.826;6.004;2024-03-22T00:09:09;2.47;;;2.20;;
14247;SDS011;7208;49.826;6.004;2024-03-22T00:11:35;3.17;;;2.23;;
14247;SDS011;7208;49.826;6.004;2024-03-22T00:14:02;3.93;;;2.30;;
14247;SDS011;7208;49.826;6.004;2024-03-22T00:16:28;3.90;;;1.90;;
14247;SDS011;7208;49.826;6.004;2024-03-22T00:18:54;2.93;;;2.10;;
14247;SDS011;7208;49.826;6.004;2024-03-22T00:21:23;3.03;;;2.73;;
14247;SDS011;7208;49.826;6.004;2024-03-22T00:23:49;2.70;;;2.30;;
14247;SDS011;7208;49.826;6.004;2024-03-22T00:26:15;4.07;;;2.30;;
14247;SDS011;7208;49.826;6.004;2024-03-22T00:28:42;2.93;;;1.97;;
14247;SDS011;7208;49.826;6.004;2024-03-22T00:31:08;3.63;;;2.17;;
14247;SDS011;7208;49.826;6.004;2024-03-22T00:33:34;2.93;;;2.63;;
14247;SDS011;7208;49.826;6.004;2024-03-22T00:36:00;3.10;;;2.27;;
14247;SDS011;7208;49.826;6.004;2024-03-22T00:38:27;4.07;;;2.47;;
14247;SDS011;7208;49.826;6.004;2024-03-22T00:40:53;3.87;;;2.20;;
14247;SDS011;7208;49.826;6.004;2024-03-22T00:43:19;3.70;;;2.70;;
14247;SDS011;7208;49.826;6.004;2024-03-22T00:45:46;3.17;;;2.50;;
14247;SDS011;7208;49.826;6.004;2024-03-22T00:48:12;3.37;;;2.40;;
14247;SDS011;7208;49.826;6.004;2024-03-22T00:50:38;3.57;;;2.30;;
14247;SDS011;7208;49.826;6.004;2024-03-22T00:53:04;3.87;;;2.80;;
14247;SDS011;7208;49.826;6.004;2024-03-22T00:55:32;3.87;;;2.40;;
14247;SDS011;7208;49.826;6.004;2024-03-22T00:57:59;2.43;;;2.10;;
14247;SDS011;7208;49.826;6.004;2024-03-22T01:00:25;4.13;;;2.53;;
14247;SDS011;7208;49.826;6.004;2024-03-22T01:02:51;2.97;;;2.50;;
14247;SDS011;7208;49.826;6.004;2024-03-22T01:05:17;4.70;;;2.80;;
14247;SDS011;7208;49.826;6.004;2024-03-22T01:07:43;5.00;;;3.00;;
14247;SDS011;7208;49.826;6.004;2024-03-22T01:10:10;4.17;;;2.30;;
14247;SDS011;7208;49.826;6.004;2024-03-22T01:12:36;3.00;;;2.50;;
14247;SDS011;7208;49.826;6.004;2024-03-22T01:15:04;4.53;;;2.40;;
14247;SDS011;7208;49.826;6.004;2024-03-22T01:17:30;3.47;;;2.83;;
14247;SDS011;7208;49.826;6.004;2024-03-22T01:19:56;3.53;;;2.33;;
14247;SDS011;7208;49.826;6.004;2024-03-22T01:22:22;5.30;;;2.57;;
14247;SDS011;7208;49.826;6.004;2024-03-22T01:24:49;2.43;;;2.13;;
14247;SDS011;7208;49.826;6.004;2024-03-22T01:27:15;4.17;;;2.40;;
14247;SDS011;7208;49.826;6.004;2024-03-22T01:29:41;3.03;;;2.47;;
14247;SDS011;7208;49.826;6.004;2024-03-22T01:32:07;5.83;;;2.57;;
14247;SDS011;7208;49.826;6.004;2024-03-22T01:34:33;3.73;;;2.43;;
14247;SDS011;7208;49.826;6.004;2024-03-22T01:37:02;3.40;;;2.50;;
14247;SDS011;7208;49.826;6.004;2024-03-22T01:39:28;3.13;;;2.10;;
14247;SDS011;7208;49.826;6.004;2024-03-22T01:41:54;2.70;;;2.20;;
14247;SDS011;7208;49.826;6.004;2024-03-22T01:44:26;4.13;;;2.80;;
14247;SDS011;7208;49.826;6.004;2024-03-22T01:46:52;3.30;;;2.50;;
14247;SDS011;7208;49.826;6.004;2024-03-22T01:49:18;3.43;;;2.67;;
14247;SDS011;7208;49.826;6.004;2024-03-22T01:51:45;2.90;;;2.23;;
14247;SDS011;7208;49.826;6.004;2024-03-22T01:54:11;2.67;;;2.10;;
14247;SDS011;7208;49.826;6.004;2024-03-22T01:56:37;2.10;;;1.90;;
14247;SDS011;7208;49.826;6.004;2024-03-22T01:59:04;3.00;;;2.50;;
14247;SDS011;7208;49.826;6.004;2024-03-22T02:01:30;3.80;;;2.67;;
14247;SDS011;7208;49.826;6.004;2024-03-22T02:03:56;3.80;;;2.03;;
14247;SDS011;7208;49.826;6.004;2024-03-22T02:06:22;2.47;;;1.93;;
14247;SDS011;7208;49.826;6.004;2024-03-22T02:08:48;2.20;;;1.97;;
14247;SDS011;7208;49.826;6.004;2024-03-22T02:11:15;2.97;;;2.37;;
14247;SDS011;7208;49.826;6.004;2024-03-22T02:13:41;2.77;;;2.30;;
14247;SDS011;7208;49.826;6.004;2024-03-22T02:16:08;3.33;;;2.53;;
14247;SDS011;7208;49.826;6.004;2024-03-22T02:18:34;3.27;;;2.17;;
14247;SDS011;7208;49.826;6.004;2024-03-22T02:21:00;5.90;;;2.97;;
14247;SDS011;7208;49.826;6.004;2024-03-22T02:23:31;2.60;;;2.20;;
14247;SDS011;7208;49.826;6.004;2024-03-22T02:25:58;2.87;;;2.30;;
14247;SDS011;7208;49.826;6.004;2024-03-22T02:28:24;4.20;;;2.80;;
14247;SDS011;7208;49.826;6.004;2024-03-22T02:30:50;4.00;;;2.73;;
14247;SDS011;7208;49.826;6.004;2024-03-22T02:33:16;3.13;;;2.50;;
14247;SDS011;7208;49.826;6.004;2024-03-22T02:35:42;2.60;;;2.33;;
14247;SDS011;7208;49.826;6.004;2024-03-22T02:38:08;5.00;;;2.83;;
14247;SDS011;7208;49.826;6.004;2024-03-22T02:40:34;2.70;;;2.20;;
14247;SDS011;7208;49.826;6.004;2024-03-22T02:43:00;3.60;;;2.40;;
14247;SDS011;7208;49.826;6.004;2024-03-22T02:45:26;3.00;;;2.17;;
14247;SDS011;7208;49.826;6.004;2024-03-22T02:47:52;2.37;;;2.07;;
14247;SDS011;7208;49.826;6.004;2024-03-22T02:50:19;2.67;;;2.07;;
14247;SDS011;7208;49.826;6.004;2024-03-22T02:52:45;3.83;;;2.47;;
14247;SDS011;7208;49.826;6.004;2024-03-22T02:55:11;2.30;;;1.87;;
14247;SDS011;7208;49.826;6.004;2024-03-22T02:57:37;5.00;;;2.23;;
14247;SDS011;7208;49.826;6.004;2024-03-22T03:00:03;3.47;;;2.40;;
14247;SDS011;7208;49.826;6.004;2024-03-22T03:02:30;2.97;;;2.53;;
14247;SDS011;7208;49.826;6.004;2024-03-22T03:04:56;4.00;;;2.73;;
14247;SDS011;7208;49.826;6.004;2024-03-22T03:07:23;4.27;;;2.60;;
14247;SDS011;7208;49.826;6.004;2024-03-22T03:09:50;2.53;;;2.23;;
14247;SDS011;7208;49.826;6.004;2024-03-22T03:12:16;3.20;;;2.03;;
14247;SDS011;7208;49.826;6.004;2024-03-22T03:14:42;2.70;;;2.30;;
14247;SDS011;7208;49.826;6.004;2024-03-22T03:17:08;2.80;;;1.90;;
14247;SDS011;7208;49.826;6.004;2024-03-22T03:19:34;3.90;;;2.33;;
14247;SDS011;7208;49.826;6.004;2024-03-22T03:22:00;3.20;;;2.40;;
14247;SDS011;7208;49.826;6.004;2024-03-22T03:24:26;4.00;;;2.23;;
14247;SDS011;7208;49.826;6.004;2024-03-22T03:26:52;2.97;;;2.60;;
14247;SDS011;7208;49.826;6.004;2024-03-22T03:29:19;5.33;;;2.70;;
14247;SDS011;7208;49.826;6.004;2024-03-22T03:31:45;4.17;;;2.57;;
14247;SDS011;7208;49.826;6.004;2024-03-22T03:34:11;3.23;;;2.87;;
14247;SDS011;7208;49.826;6.004;2024-03-22T03:36:37;4.67;;;2.97;;
14247;SDS011;7208;49.826;6.004;2024-03-22T03:39:03;4.77;;;2.77;;
14247;SDS011;7208;49.826;6.004;2024-03-22T03:41:29;5.50;;;3.67;;
14247;SDS011;7208;49.826;6.004;2024-03-22T03:43:55;2.93;;;2.63;;
14247;SDS011;7208;49.826;6.004;2024-03-22T03:46:21;5.13;;;2.80;;
14247;SDS011;7208;49.826;6.004;2024-03-22T03:48:48;2.77;;;2.20;;
14247;SDS011;7208;49.826;6.004;2024-03-22T03:51:14;5.47;;;3.03;;
14247;SDS011;7208;49.826;6.004;2024-03-22T03:53:40;4.13;;;3.00;;
14247;SDS011;7208;49.826;6.004;2024-03-22T03:56:06;3.50;;;2.87;;
14247;SDS011;7208;49.826;6.004;2024-03-22T03:58:32;4.60;;;2.47;;
14247;SDS011;7208;49.826;6.004;2024-03-22T04:00:58;3.73;;;2.53;;
14247;SDS011;7208;49.826;6.004;2024-03-22T04:03:24;3.70;;;2.97;;
14247;SDS011;7208;49.826;6.004;2024-03-22T04:05:56;3.00;;;2.43;;
14247;SDS011;7208;49.826;6.004;2024-03-22T04:08:23;3.53;;;2.83;;
14247;SDS011;7208;49.826;6.004;2024-03-22T04:10:53;5.90;;;3.00;;
14247;SDS011;7208;49.826;6.004;2024-03-22T04:13:21;4.37;;;3.27;;
14247;SDS011;7208;49.826;6.004;2024-03-22T04:15:47;4.87;;;3.13;;
14247;SDS011;7208;49.826;6.004;2024-03-22T04:18:13;4.23;;;2.90;;
14247;SDS011;7208;49.826;6.004;2024-03-22T04:20:39;6.27;;;3.60;;
14247;SDS011;7208;49.826;6.004;2024-03-22T04:23:05;6.10;;;3.27;;
14247;SDS011;7208;49.826;6.004;2024-03-22T04:25:32;4.73;;;3.20;;
14247;SDS011;7208;49.826;6.004;2024-03-22T04:27:58;4.07;;;3.07;;
14247;SDS011;7208;49.826;6.004;2024-03-22T04:30:24;4.23;;;3.40;;
14247;SDS011;7208;49.826;6.004;2024-03-22T04:32:50;4.93;;;3.63;;
14247;SDS011;7208;49.826;6.004;2024-03-22T04:35:16;5.33;;;3.93;;
14247;SDS011;7208;49.826;6.004;2024-03-22T04:37:42;4.20;;;3.60;;
14247;SDS011;7208;49.826;6.004;2024-03-22T04:40:08;7.63;;;4.37;;
14247;SDS011;7208;49.826;6.004;2024-03-22T04:42:37;4.90;;;3.57;;
14247;SDS011;7208;49.826;6.004;2024-03-22T04:45:03;5.93;;;4.17;;
14247;SDS011;7208;49.826;6.004;2024-03-22T04:47:29;4.43;;;3.60;;
14247;SDS011;7208;49.826;6.004;2024-03-22T04:49:55;5.75;;;4.82;;
14247;SDS011;7208;49.826;6.004;2024-03-22T04:52:22;4.50;;;4.10;;
14247;SDS011;7208;49.826;6.004;2024-03-22T04:54:48;4.80;;;4.07;;
14247;SDS011;7208;49.826;6.004;2024-03-22T04:57:14;4.80;;;4.30;;
14247;SDS011;7208;49.826;6.004;2024-03-22T04:59:40;5.60;;;4.30;;
14247;SDS011;7208;49.826;6.004;2024-03-22T05:02:06;6.57;;;4.17;;
14247;SDS011;7208;49.826;6.004;2024-03-22T05:04:32;5.87;;;4.40;;
14247;SDS011;7208;49.826;6.004;2024-03-22T05:06:58;5.77;;;3.83;;
14247;SDS011;7208;49.826;6.004;2024-03-22T05:09:24;6.82;;;5.15;;
14247;SDS011;7208;49.826;6.004;2024-03-22T05:11:50;7.13;;;5.40;;
14247;SDS011;7208;49.826;6.004;2024-03-22T05:14:18;4.77;;;4.30;;
14247;SDS011;7208;49.826;6.004;2024-03-22T05:16:45;4.63;;;3.70;;
14247;SDS011;7208;49.826;6.004;2024-03-22T05:19:11;7.70;;;4.37;;
14247;SDS011;7208;49.826;6.004;2024-03-22T05:21:37;4.37;;;3.83;;
14247;SDS011;7208;49.826;6.004;2024-03-22T05:24:04;5.37;;;4.30;;
14247;SDS011;7208;49.826;6.004;2024-03-22T05:26:30;7.20;;;4.13;;
14247;SDS011;7208;49.826;6.004;2024-03-22T05:29:01;4.57;;;3.93;;
14247;SDS011;7208;49.826;6.004;2024-03-22T05:31:27;6.50;;;4.27;;
14247;SDS011;7208;49.826;6.004;2024-03-22T05:33:53;5.47;;;4.07;;
14247;SDS011;7208;49.826;6.004;2024-03-22T05:36:19;5.77;;;4.30;;
14247;SDS011;7208;49.826;6.004;2024-03-22T05:38:45;7.33;;;4.23;;
14247;SDS011;7208;49.826;6.004;2024-03-22T05:41:11;6.93;;;4.63;;
14247;SDS011;7208;49.826;6.004;2024-03-22T05:43:38;6.63;;;4.63;;
14247;SDS011;7208;49.826;6.004;2024-03-22T05:46:04;4.77;;;4.10;;
14247;SDS011;7208;49.826;6.004;2024-03-22T05:48:30;4.87;;;4.07;;
14247;SDS011;7208;49.826;6.004;2024-03-22T05:50:56;5.30;;;4.40;;
14247;SDS011;7208;49.826;6.004;2024-03-22T05:53:22;6.20;;;4.47;;
14247;SDS011;7208;49.826;6.004;2024-03-22T05:55:48;8.00;;;4.60;;
14247;SDS011;7208;49.826;6.004;2024-03-22T05:58:14;5.67;;;4.27;;
14247;SDS011;7208;49.826;6.004;2024-03-22T06:00:40;7.77;;;5.00;;
14247;SDS011;7208;49.826;6.004;2024-03-22T06:03:07;6.67;;;4.50;;
14247;SDS011;7208;49.826;6.004;2024-03-22T06:05:33;10.17;;;5.03;;
14247;SDS011;7208;49.826;6.004;2024-03-22T06:07:59;5.20;;;4.17;;
14247;SDS011;7208;49.826;6.004;2024-03-22T06:10:25;6.83;;;4.00;;
14247;SDS011;7208;49.826;6.004;2024-03-22T06:12:51;6.90;;;5.10;;
14247;SDS011;7208;49.826;6.004;2024-03-22T06:15:17;7.27;;;4.53;;
14247;SDS011;7208;49.826;6.004;2024-03-22T06:17:43;6.57;;;5.10;;
14247;SDS011;7208;49.826;6.004;2024-03-22T06:20:11;8.97;;;5.00;;
14247;SDS011;7208;49.826;6.004;2024-03-22T06:22:37;5.67;;;4.80;;
14247;SDS011;7208;49.826;6.004;2024-03-22T06:25:03;6.53;;;4.73;;
14247;SDS011;7208;49.826;6.004;2024-03-22T06:27:29;6.40;;;4.40;;
14247;SDS011;7208;49.826;6.004;2024-03-22T06:29:55;5.50;;;4.80;;
14247;SDS011;7208;49.826;6.004;2024-03-22T06:32:21;5.27;;;4.13;;
14247;SDS011;7208;49.826;6.004;2024-03-22T06:34:48;6.23;;;4.57;;
14247;SDS011;7208;49.826;6.004;2024-03-22T06:37:14;5.43;;;4.23;;
14247;SDS011;7208;49.826;6.004;2024-03-22T06:39:40;6.07;;;4.27;;
14247;SDS011;7208;49.826;6.004;2024-03-22T06:42:06;6.43;;;4.30;;
14247;SDS011;7208;49.826;6.004;2024-03-22T06:44:32;8.30;;;4.87;;
14247;SDS011;7208;49.826;6.004;2024-03-22T06:46:58;6.93;;;4.17;;
14247;SDS011;7208;49.826;6.004;2024-03-22T06:49:24;8.53;;;4.33;;
14247;SDS011;7208;49.826;6.004;2024-03-22T06:51:50;5.10;;;4.30;;
14247;SDS011;7208;49.826;6.004;2024-03-22T06:54:16;5.70;;;4.47;;
14247;SDS011;7208;49.826;6.004;2024-03-22T06:56:42;7.87;;;5.20;;
14247;SDS011;7208;49.826;6.004;2024-03-22T06:59:08;6.77;;;4.63;;
14247;SDS011;7208;49.826;6.004;2024-03-22T07:01:34;5.40;;;4.90;;
14247;SDS011;7208;49.826;6.004;2024-03-22T07:04:00;7.40;;;4.90;;
14247;SDS011;7208;49.826;6.004;2024-03-22T07:06:27;6.03;;;4.40;;
14247;SDS011;7208;49.826;6.004;2024-03-22T07:08:53;5.23;;;4.20;;
14247;SDS011;7208;49.826;6.004;2024-03-22T07:11:19;6.43;;;4.33;;
14247;SDS011;7208;49.826;6.004;2024-03-22T07:13:45;6.37;;;4.53;;
14247;SDS011;7208;49.826;6.004;2024-03-22T07:16:11;5.73;;;4.63;;
14247;SDS011;7208;49.826;6.004;2024-03-22T07:18:38;9.20;;;5.37;;
14247;SDS011;7208;49.826;6.004;2024-03-22T07:21:04;6.53;;;5.33;;
14247;SDS011;7208;49.826;6.004;2024-03-22T07:23:30;5.37;;;4.40;;
14247;SDS011;7208;49.826;6.004;2024-03-22T07:25:56;5.80;;;4.33;;
14247;SDS011;7208;49.826;6.004;2024-03-22T07:28:22;6.03;;;4.70;;
14247;SDS011;7208;49.826;6.004;2024-03-22T07:30:48;6.10;;;4.17;;
14247;SDS011;7208;49.826;6.004;2024-03-22T07:33:14;5.03;;;4.53;;
14247;SDS011;7208;49.826;6.004;2024-03-22T07:35:42;6.50;;;4.07;;
14247;SDS011;7208;49.826;6.004;2024-03-22T07:38:08;5.90;;;4.67;;
14247;SDS011;7208;49.826;6.004;2024-03-22T07:40:34;7.43;;;4.67;;
14247;SDS011;7208;49.826;6.004;2024-03-22T07:43:00;10.03;;;5.07;;
14247;SDS011;7208;49.826;6.004;2024-03-22T07:45:34;7.10;;;4.80;;
14247;SDS011;7208;49.826;6.004;2024-03-22T07:48:01;7.10;;;4.33;;
14247;SDS011;7208;49.826;6.004;2024-03-22T07:50:27;7.13;;;4.90;;
14247;SDS011;7208;49.826;6.004;2024-03-22T07:52:53;6.40;;;4.60;;
14247;SDS011;7208;49.826;6.004;2024-03-22T07:55:19;5.73;;;4.70;;
14247;SDS011;7208;49.826;6.004;2024-03-22T07:57:45;5.37;;;4.60;;
14247;SDS011;7208;49.826;6.004;2024-03-22T08:00:11;6.63;;;4.43;;
14247;SDS011;7208;49.826;6.004;2024-03-22T08:02:37;5.50;;;4.23;;
14247;SDS011;7208;49.826;6.004;2024-03-22T08:05:04;5.57;;;4.33;;
14247;SDS011;7208;49.826;6.004;2024-03-22T08:07:30;5.97;;;4.87;;
14247;SDS011;7208;49.826;6.004;2024-03-22T08:09:56;4.83;;;4.33;;
14247;SDS011;7208;49.826;6.004;2024-03-22T08:12:24;5.37;;;4.43;;
14247;SDS011;7208;49.826;6.004;2024-03-22T08:14:50;5.43;;;4.90;;
14247;SDS011;7208;49.826;6.004;2024-03-22T08:17:16;5.13;;;4.27;;
14247;SDS011;7208;49.826;6.004;2024-03-22T08:19:42;5.27;;;4.77;;
14247;SDS011;7208;49.826;6.004;2024-03-22T08:22:09;6.70;;;4.50;;
14247;SDS011;7208;49.826;6.004;2024-03-22T08:24:35;5.60;;;4.40;;
14247;SDS011;7208;49.826;6.004;2024-03-22T08:27:02;5.63;;;4.80;;
14247;SDS011;7208;49.826;6.004;2024-03-22T08:29:28;5.40;;;4.77;;
14247;SDS011;7208;49.826;6.004;2024-03-22T08:31:54;5.53;;;4.47;;
14247;SDS011;7208;49.826;6.004;2024-03-22T08:34:21;6.30;;;5.27;;
14247;SDS011;7208;49.826;6.004;2024-03-22T08:36:47;6.03;;;4.50;;
14247;SDS011;7208;49.826;6.004;2024-03-22T08:39:13;5.60;;;5.07;;
14247;SDS011;7208;49.826;6.004;2024-03-22T08:41:40;8.37;;;5.43;;
14247;SDS011;7208;49.826;6.004;2024-03-22T08:44:06;7.23;;;4.93;;
14247;SDS011;7208;49.826;6.004;2024-03-22T08:46:32;5.27;;;4.60;;
14247;SDS011;7208;49.826;6.004;2024-03-22T08:48:58;6.63;;;5.00;;
14247;SDS011;7208;49.826;6.004;2024-03-22T08:51:24;6.33;;;4.77;;
14247;SDS011;7208;49.826;6.004;2024-03-22T08:53:51;5.30;;;4.80;;
14247;SDS011;7208;49.826;6.004;2024-03-22T08:56:17;7.50;;;4.83;;
14247;SDS011;7208;49.826;6.004;2024-03-22T08:58:43;5.50;;;4.60;;
14247;SDS011;7208;49.826;6.004;2024-03-22T09:01:09;7.23;;;5.33;;
14247;SDS011;7208;49.826;6.004;2024-03-22T09:03:36;7.47;;;6.27;;
14247;SDS011;7208;49.826;6.004;2024-03-22T09:06:02;9.13;;;6.23;;
14247;SDS011;7208;49.826;6.004;2024-03-22T09:08:29;6.30;;;5.43;;
14247;SDS011;7208;49.826;6.004;2024-03-22T09:10:55;6.70;;;6.07;;
14247;SDS011;7208;49.826;6.004;2024-03-22T09:13:21;9.37;;;7.03;;
14247;SDS011;7208;49.826;6.004;2024-03-22T09:15:47;6.77;;;5.93;;
14247;SDS011;7208;49.826;6.004;2024-03-22T09:18:14;7.37;;;5.90;;
14247;SDS011;7208;49.826;6.004;2024-03-22T09:20:40;6.60;;;5.83;;
14247;SDS011;7208;49.826;6.004;2024-03-22T09:23:06;7.83;;;6.30;;
14247;SDS011;7208;49.826;6.004;2024-03-22T09:25:32;9.80;;;6.30;;
14247;SDS011;7208;49.826;6.004;2024-03-22T09:27:58;7.30;;;5.63;;
14247;SDS011;7208;49.826;6.004;2024-03-22T09:30:24;8.40;;;6.53;;
14247;SDS011;7208;49.826;6.004;2024-03-22T09:32:50;7.13;;;5.83;;
14247;SDS011;7208;49.826;6.004;2024-03-22T09:35:17;8.03;;;6.57;;
14247;SDS011;7208;49.826;6.004;2024-03-22T09:37:43;8.10;;;5.77;;
14247;SDS011;7208;49.826;6.004;2024-03-22T09:40:09;6.83;;;5.83;;
14247;SDS011;7208;49.826;6.004;2024-03-22T09:42:38;7.17;;;6.47;;
14247;SDS011;7208;49.826;6.004;2024-03-22T09:45:07;10.53;;;6.57;;
14247;SDS011;7208;49.826;6.004;2024-03-22T09:47:35;9.10;;;6.27;;
14247;SDS011;7208;49.826;6.004;2024-03-22T09:50:02;8.20;;;6.93;;
14247;SDS011;7208;49.826;6.004;2024-03-22T09:52:29;7.70;;;6.90;;
14247;SDS011;7208;49.826;6.004;2024-03-22T09:54:56;12.33;;;7.53;;
14247;SDS011;7208;49.826;6.004;2024-03-22T09:57:22;8.80;;;7.00;;
14247;SDS011;7208;49.826;6.004;2024-03-22T09:59:49;9.53;;;7.10;;
14247;SDS011;7208;49.826;6.004;2024-03-22T10:02:16;7.80;;;6.83;;
14247;SDS011;7208;49.826;6.004;2024-03-22T10:04:42;7.70;;;6.27;;
14247;SDS011;7208;49.826;6.004;2024-03-22T10:07:09;8.20;;;7.40;;
14247;SDS011;7208;49.826;6.004;2024-03-22T10:09:35;9.10;;;7.20;;
14247;SDS011;7208;49.826;6.004;2024-03-22T10:12:02;7.20;;;6.40;;
14247;SDS011;7208;49.826;6.004;2024-03-22T10:14:28;8.37;;;7.23;;
14247;SDS011;7208;49.826;6.004;2024-03-22T10:16:56;10.93;;;6.97;;
14247;SDS011;7208;49.826;6.004;2024-03-22T10:19:22;12.83;;;7.57;;
14247;SDS011;7208;49.826;6.004;2024-03-22T10:24:27;11.00;;;8.40;;
14247;SDS011;7208;49.826;6.004;2024-03-22T10:26:53;9.40;;;8.13;;
14247;SDS011;7208;49.826;6.004;2024-03-22T10:29:20;10.90;;;7.83;;
14247;SDS011;7208;49.826;6.004;2024-03-22T10:31:47;12.20;;;8.97;;
14247;SDS011;7208;49.826;6.004;2024-03-22T10:34:13;13.83;;;8.43;;
14247;SDS011;7208;49.826;6.004;2024-03-22T10:36:39;11.90;;;8.90;;
14247;SDS011;7208;49.826;6.004;2024-03-22T10:39:06;11.40;;;8.53;;
14247;SDS011;7208;49.826;6.004;2024-03-22T10:41:33;12.27;;;8.13;;
14247;SDS011;7208;49.826;6.004;2024-03-22T10:43:59;16.33;;;9.77;;
14247;SDS011;7208;49.826;6.004;2024-03-22T10:46:31;11.97;;;8.20;;
14247;SDS011;7208;49.826;6.004;2024-03-22T10:48:57;11.63;;;9.37;;
14247;SDS011;7208;49.826;6.004;2024-03-22T10:51:24;9.13;;;8.07;;
14247;SDS011;7208;49.826;6.004;2024-03-22T10:53:51;9.43;;;8.17;;
14247;SDS011;7208;49.826;6.004;2024-03-22T10:56:17;11.90;;;8.17;;
14247;SDS011;7208;49.826;6.004;2024-03-22T10:58:44;9.33;;;8.00;;
14247;SDS011;7208;49.826;6.004;2024-03-22T11:01:25;11.53;;;9.67;;
14247;SDS011;7208;49.826;6.004;2024-03-22T11:04:02;9.63;;;8.60;;
14247;SDS011;7208;49.826;6.004;2024-03-22T11:06:28;10.77;;;8.00;;
14247;SDS011;7208;49.826;6.004;2024-03-22T11:08:58;9.77;;;7.83;;
14247;SDS011;7208;49.826;6.004;2024-03-22T11:11:25;12.17;;;8.10;;
14247;SDS011;7208;49.826;6.004;2024-03-22T11:13:54;10.33;;;8.83;;
14247;SDS011;7208;49.826;6.004;2024-03-22T11:16:21;9.43;;;8.17;;
14247;SDS011;7208;49.826;6.004;2024-03-22T11:18:47;8.87;;;7.33;;
14247;SDS011;7208;49.826;6.004;2024-03-22T11:21:14;12.27;;;8.40;;
14247;SDS011;7208;49.826;6.004;2024-03-22T11:23:40;8.07;;;6.67;;
14247;SDS011;7208;49.826;6.004;2024-03-22T11:26:06;10.50;;;7.67;;
14247;SDS011;7208;49.826;6.004;2024-03-22T11:28:33;9.47;;;7.33;;
14247;SDS011;7208;49.826;6.004;2024-03-22T11:30:59;9.80;;;7.20;;
14247;SDS011;7208;49.826;6.004;2024-03-22T11:33:25;12.40;;;8.32;;
14247;SDS011;7208;49.826;6.004;2024-03-22T11:35:54;12.83;;;7.90;;
14247;SDS011;7208;49.826;6.004;2024-03-22T11:38:20;9.67;;;5.80;;
14247;SDS011;7208;49.826;6.004;2024-03-22T11:40:46;9.37;;;6.87;;
14247;SDS011;7208;49.826;6.004;2024-03-22T11:43:13;10.00;;;6.10;;
14247;SDS011;7208;49.826;6.004;2024-03-22T11:45:40;9.07;;;5.10;;
14247;SDS011;7208;49.826;6.004;2024-03-22T11:48:08;8.67;;;6.10;;
14247;SDS011;7208;49.826;6.004;2024-03-22T11:50:36;6.57;;;5.40;;
14247;SDS011;7208;49.826;6.004;2024-03-22T11:53:04;5.90;;;5.07;;
14247;SDS011;7208;49.826;6.004;2024-03-22T11:55:30;7.47;;;5.80;;
14247;SDS011;7208;49.826;6.004;2024-03-22T11:57:57;7.80;;;5.63;;
14247;SDS011;7208;49.826;6.004;2024-03-22T12:00:23;7.40;;;5.67;;
14247;SDS011;7208;49.826;6.004;2024-03-22T12:02:50;7.43;;;6.10;;
14247;SDS011;7208;49.826;6.004;2024-03-22T12:05:20;8.53;;;6.43;;
14247;SDS011;7208;49.826;6.004;2024-03-22T12:07:46;7.23;;;5.83;;
14247;SDS011;7208;49.826;6.004;2024-03-22T12:10:12;6.77;;;5.43;;
14247;SDS011;7208;49.826;6.004;2024-03-22T12:12:38;7.50;;;5.80;;
14247;SDS011;7208;49.826;6.004;2024-03-22T12:15:05;6.17;;;5.30;;
14247;SDS011;7208;49.826;6.004;2024-03-22T12:17:31;6.17;;;5.57;;
14247;SDS011;7208;49.826;6.004;2024-03-22T12:19:57;6.07;;;4.57;;
14247;SDS011;7208;49.826;6.004;2024-03-22T12:22:23;6.63;;;4.57;;
14247;SDS011;7208;49.826;6.004;2024-03-22T12:24:50;5.10;;;4.33;;
14247;SDS011;7208;49.826;6.004;2024-03-22T12:27:16;5.37;;;4.30;;
14247;SDS011;7208;49.826;6.004;2024-03-22T12:29:43;6.73;;;4.23;;
14247;SDS011;7208;49.826;6.004;2024-03-22T12:32:09;5.20;;;4.47;;
14247;SDS011;7208;49.826;6.004;2024-03-22T12:34:35;5.87;;;5.10;;
14247;SDS011;7208;49.826;6.004;2024-03-22T12:37:02;6.40;;;4.03;;
14247;SDS011;7208;49.826;6.004;2024-03-22T12:39:28;5.67;;;5.07;;
14247;SDS011;7208;49.826;6.004;2024-03-22T12:41:54;5.27;;;4.77;;
14247;SDS011;7208;49.826;6.004;2024-03-22T12:44:20;5.33;;;4.57;;
14247;SDS011;7208;49.826;6.004;2024-03-22T12:46:47;7.60;;;5.37;;
14247;SDS011;7208;49.826;6.004;2024-03-22T12:49:13;6.30;;;5.50;;
14247;SDS011;7208;49.826;6.004;2024-03-22T12:51:39;6.23;;;5.63;;
14247;SDS011;7208;49.826;6.004;2024-03-22T12:54:06;10.47;;;6.43;;
14247;SDS011;7208;49.826;6.004;2024-03-22T12:56:33;6.67;;;5.63;;
14247;SDS011;7208;49.826;6.004;2024-03-22T12:58:59;8.83;;;6.10;;
14247;SDS011;7208;49.826;6.004;2024-03-22T13:01:25;6.60;;;5.30;;
14247;SDS011;7208;49.826;6.004;2024-03-22T13:03:51;6.17;;;5.33;;
14247;SDS011;7208;49.826;6.004;2024-03-22T13:06:17;6.13;;;5.27;;
14247;SDS011;7208;49.826;6.004;2024-03-22T13:08:43;5.77;;;4.83;;
14247;SDS011;7208;49.826;6.004;2024-03-22T13:11:09;6.33;;;5.63;;
14247;SDS011;7208;49.826;6.004;2024-03-22T13:13:36;5.00;;;4.50;;
14247;SDS011;7208;49.826;6.004;2024-03-22T13:16:02;5.63;;;4.40;;
14247;SDS011;7208;49.826;6.004;2024-03-22T13:18:28;5.97;;;4.97;;
14247;SDS011;7208;49.826;6.004;2024-03-22T13:20:55;4.90;;;4.50;;
14247;SDS011;7208;49.826;6.004;2024-03-22T13:23:21;5.83;;;4.60;;
14247;SDS011;7208;49.826;6.004;2024-03-22T13:25:47;5.40;;;4.57;;
14247;SDS011;7208;49.826;6.004;2024-03-22T13:28:14;4.93;;;4.50;;
14247;SDS011;7208;49.826;6.004;2024-03-22T13:30:45;4.03;;;3.63;;
14247;SDS011;7208;49.826;6.004;2024-03-22T13:33:11;4.50;;;3.43;;
14247;SDS011;7208;49.826;6.004;2024-03-22T13:35:37;4.90;;;3.70;;
14247;SDS011;7208;49.826;6.004;2024-03-22T13:38:03;5.20;;;3.73;;
14247;SDS011;7208;49.826;6.004;2024-03-22T13:40:29;5.93;;;3.93;;
14247;SDS011;7208;49.826;6.004;2024-03-22T13:42:55;6.73;;;4.10;;
14247;SDS011;7208;49.826;6.004;2024-03-22T13:45:23;5.27;;;3.80;;
14247;SDS011;7208;49.826;6.004;2024-03-22T13:47:49;4.37;;;3.80;;
14247;SDS011;7208;49.826;6.004;2024-03-22T13:50:15;3.80;;;3.40;;
14247;SDS011;7208;49.826;6.004;2024-03-22T13:52:41;4.53;;;3.57;;
14247;SDS011;7208;49.826;6.004;2024-03-22T13:55:07;4.00;;;3.63;;
14247;SDS011;7208;49.826;6.004;2024-03-22T13:57:34;3.50;;;3.20;;
14247;SDS011;7208;49.826;6.004;2024-03-22T14:00:00;3.17;;;2.63;;
14247;SDS011;7208;49.826;6.004;2024-03-22T14:02:31;2.73;;;2.53;;
14247;SDS011;7208;49.826;6.004;2024-03-22T14:04:58;3.30;;;2.57;;
14247;SDS011;7208;49.826;6.004;2024-03-22T14:07:24;3.53;;;2.53;;
14247;SDS011;7208;49.826;6.004;2024-03-22T14:09:50;2.57;;;2.37;;
14247;SDS011;7208;49.826;6.004;2024-03-22T14:12:16;2.43;;;2.23;;
14247;SDS011;7208;49.826;6.004;2024-03-22T14:14:42;2.43;;;2.23;;
14247;SDS011;7208;49.826;6.004;2024-03-22T14:17:08;3.13;;;2.23;;
14247;SDS011;7208;49.826;6.004;2024-03-22T14:19:34;3.97;;;2.43;;
14247;SDS011;7208;49.826;6.004;2024-03-22T14:22:00;4.17;;;2.33;;
14247;SDS011;7208;49.826;6.004;2024-03-22T14:24:26;3.00;;;2.40;;
14247;SDS011;7208;49.826;6.004;2024-03-22T14:26:52;2.50;;;2.13;;
14247;SDS011;7208;49.826;6.004;2024-03-22T14:29:18;2.73;;;2.17;;
14247;SDS011;7208;49.826;6.004;2024-03-22T14:31:44;2.23;;;2.00;;
14247;SDS011;7208;49.826;6.004;2024-03-22T14:34:10;2.60;;;2.23;;
14247;SDS011;7208;49.826;6.004;2024-03-22T14:36:36;3.27;;;2.40;;
14247;SDS011;7208;49.826;6.004;2024-03-22T14:39:03;3.37;;;2.90;;
14247;SDS011;7208;49.826;6.004;2024-03-22T14:41:31;3.87;;;3.47;;
14247;SDS011;7208;49.826;6.004;2024-03-22T14:43:57;3.33;;;3.03;;
14247;SDS011;7208;49.826;6.004;2024-03-22T14:46:23;3.57;;;3.27;;
14247;SDS011;7208;49.826;6.004;2024-03-22T14:48:49;3.67;;;3.37;;
14247;SDS011;7208;49.826;6.004;2024-03-22T14:51:16;3.07;;;2.67;;
14247;SDS011;7208;49.826;6.004;2024-03-22T14:53:42;3.10;;;2.80;;
14247;SDS011;7208;49.826;6.004;2024-03-22T14:56:08;3.80;;;2.67;;
14247;SDS011;7208;49.826;6.004;2024-03-22T14:58:34;3.53;;;3.17;;